createdAt,value
2022-08-02T00:01:14.993Z,100741.00
2022-08-02T00:03:44.217Z,100739.19
2022-08-02T00:06:13.221Z,100727.16
2022-08-02T00:08:42.538Z,100732.06
2022-08-02T00:11:11.690Z,100733.97
2022-08-02T00:13:40.935Z,100728.50
2022-08-02T00:16:09.951Z,100732.84
2022-08-02T00:18:45.664Z,100727.72
2022-08-02T00:21:14.955Z,100722.47
2022-08-02T00:24:09.013Z,100724.78
2022-08-02T00:26:34.771Z,100723.50
2022-08-02T00:29:04.347Z,100725.22
2022-08-02T00:31:33.814Z,100724.41
2022-08-02T00:34:27.609Z,100720.25
2022-08-02T00:36:51.903Z,100717.47
2022-08-02T00:39:33.522Z,100714.41
2022-08-02T00:42:05.296Z,100714.69
2022-08-02T00:44:34.789Z,100715.47
2022-08-02T00:47:03.792Z,100721.97
2022-08-02T00:49:33.277Z,100715.97
2022-08-02T00:52:02.694Z,100713.00
2022-08-02T00:54:32.127Z,100706.75
2022-08-02T00:57:01.363Z,100706.28
2022-08-02T00:59:30.404Z,100710.16
2022-08-02T01:01:59.714Z,100712.72
2022-08-02T01:04:29.881Z,100698.97
2022-08-02T01:07:13.079Z,100701.13
2022-08-02T01:09:44.568Z,100709.16
2022-08-02T01:12:14.741Z,100709.13
2022-08-02T01:14:47.267Z,100716.31
2022-08-02T01:17:37.730Z,100716.66
2022-08-02T01:20:31.482Z,100713.19
2022-08-02T01:23:34.213Z,100713.81
2022-08-02T01:26:09.235Z,100717.53
2022-08-02T01:28:50.168Z,100709.25
2022-08-02T01:31:41.914Z,100710.97
2022-08-02T01:34:33.934Z,100712.75
2022-08-02T01:37:19.476Z,100705.44
2022-08-02T01:39:53.108Z,100703.81
2022-08-02T01:42:25.072Z,100709.03
2022-08-02T01:44:56.148Z,100712.09
2022-08-02T01:47:30.116Z,100704.16
2022-08-02T01:50:01.299Z,100704.38
2022-08-02T01:52:35.117Z,100701.03
2022-08-02T01:55:10.004Z,100698.72
2022-08-02T01:57:51.948Z,100709.09
2022-08-02T02:00:27.798Z,100698.25
2022-08-02T02:02:57.985Z,100698.00
2022-08-02T02:05:30.678Z,100697.38
2022-08-02T02:08:02.806Z,100696.63
2022-08-02T02:10:34.320Z,100697.72
2022-08-02T02:13:08.074Z,100703.34
2022-08-02T02:15:51.122Z,100700.06
2022-08-02T02:18:28.106Z,100698.97
2022-08-02T02:20:58.155Z,100698.41
2022-08-02T02:23:27.285Z,100706.06
2022-08-02T02:26:03.926Z,100699.84
2022-08-02T02:28:36.241Z,100694.28
2022-08-02T02:31:10.084Z,100702.97
2022-08-02T02:33:45.727Z,100697.88
2022-08-02T02:36:17.718Z,100698.66
2022-08-02T02:38:49.440Z,100695.91
2022-08-02T02:41:21.200Z,100700.56
2022-08-02T02:43:51.814Z,100697.81
2022-08-02T02:46:22.537Z,100703.69
2022-08-02T02:48:53.328Z,100703.22
2022-08-02T02:51:23.342Z,100698.59
2022-08-02T02:54:32.728Z,100701.72
2022-08-02T02:56:44.501Z,100699.22
2022-08-02T02:59:16.146Z,100697.31
2022-08-02T03:01:56.670Z,100708.91
2022-08-02T03:04:56.209Z,100696.69
2022-08-02T03:07:18.936Z,100702.78
2022-08-02T03:09:54.490Z,100695.81
2022-08-02T03:12:30.193Z,100700.53
2022-08-02T03:15:04.868Z,100704.63
2022-08-02T03:17:45.730Z,100703.78
2022-08-02T03:20:19.639Z,100711.28
2022-08-02T03:22:48.982Z,100712.94
2022-08-02T03:25:19.233Z,100712.84
2022-08-02T03:27:48.441Z,100713.84
2022-08-02T03:30:17.572Z,100711.13
2022-08-02T03:32:49.580Z,100724.47
2022-08-02T03:35:24.167Z,100715.66
2022-08-02T03:37:58.730Z,100719.97
2022-08-02T03:40:31.485Z,100719.25
2022-08-02T03:43:02.681Z,100718.03
2022-08-02T03:45:32.634Z,100724.69
2022-08-02T03:48:03.347Z,100717.94
2022-08-02T03:50:53.098Z,100729.75
2022-08-02T03:53:23.848Z,100726.41
2022-08-02T03:55:55.930Z,100728.03
2022-08-02T03:58:26.144Z,100728.75
2022-08-02T04:00:58.371Z,100741.47
2022-08-02T04:08:35.187Z,100749.50
2022-08-02T04:11:25.178Z,100765.09
2022-08-02T04:14:24.605Z,100768.13
2022-08-02T04:16:54.453Z,100770.13
2022-08-02T04:19:45.913Z,100767.97
2022-08-02T04:22:28.490Z,100772.16
2022-08-02T04:25:02.917Z,100769.69
2022-08-02T04:27:51.057Z,100775.84
2022-08-02T04:30:32.589Z,100773.25
2022-08-02T04:34:03.666Z,100778.28
2022-08-02T04:36:37.096Z,100793.84
2022-08-02T04:39:15.674Z,100796.38
2022-08-02T04:41:57.546Z,100797.66
2022-08-02T04:44:30.610Z,100803.94
2022-08-02T04:47:06.725Z,100801.28
2022-08-02T04:49:36.147Z,100793.91
2022-08-02T04:52:08.419Z,100804.31
2022-08-02T04:54:43.641Z,100814.50
2022-08-02T04:57:33.977Z,100808.69
2022-08-02T05:00:04.131Z,100815.88
2022-08-02T05:02:33.213Z,100821.84
2022-08-02T05:05:05.648Z,100820.56
2022-08-02T05:07:42.396Z,100814.91
2022-08-02T05:10:16.103Z,100823.06
2022-08-02T05:12:45.213Z,100818.94
2022-08-02T05:15:24.740Z,100824.25
2022-08-02T05:18:20.033Z,100823.16
2022-08-02T05:21:32.404Z,100832.25
2022-08-02T05:24:01.479Z,100835.38
2022-08-02T05:26:48.463Z,100837.84
2022-08-02T05:29:17.889Z,100831.94
2022-08-02T05:31:47.987Z,100842.50
2022-08-02T05:34:17.070Z,100847.25
2022-08-02T05:36:46.363Z,100849.53
2022-08-02T05:39:19.140Z,100863.47
2022-08-02T05:41:49.090Z,100863.72
2022-08-02T05:44:20.351Z,100870.69
2022-08-02T05:46:49.479Z,100866.59
2022-08-02T05:49:19.411Z,100877.59
2022-08-02T05:52:01.364Z,100879.16
2022-08-02T05:54:37.613Z,100879.63
2022-08-02T05:57:11.614Z,100881.22
2022-08-02T05:59:52.537Z,100882.38
2022-08-02T06:02:30.479Z,100886.00
2022-08-02T06:05:15.295Z,100886.56
2022-08-02T06:07:45.810Z,100884.03
2022-08-02T06:10:16.818Z,100884.50
2022-08-02T06:13:06.370Z,100891.84
2022-08-02T06:15:40.633Z,100892.19
2022-08-02T06:18:28.324Z,100898.38
2022-08-02T06:22:30.554Z,100893.44
2022-08-02T06:23:58.698Z,100899.50
2022-08-02T06:26:29.522Z,100914.59
2022-08-02T06:28:59.660Z,100907.47
2022-08-02T06:31:28.814Z,100909.06
2022-08-02T06:33:58.380Z,100919.31
2022-08-02T06:36:53.208Z,100910.34
2022-08-02T06:39:49.504Z,100926.41
2022-08-02T06:42:27.553Z,100927.91
2022-08-02T06:44:59.294Z,100927.81
2022-08-02T06:47:29.203Z,100926.63
2022-08-02T06:49:59.281Z,100925.06
2022-08-02T06:52:31.988Z,100929.78
2022-08-02T06:55:02.711Z,100936.31
2022-08-02T06:57:32.998Z,100944.47
2022-08-02T07:00:03.389Z,100940.31
2022-08-02T07:02:33.419Z,100941.28
2022-08-02T07:05:04.840Z,100944.81
2022-08-02T07:07:34.669Z,100951.59
2022-08-02T07:10:03.732Z,100943.34
2022-08-02T07:12:35.192Z,100941.22
2022-08-02T07:15:07.751Z,100939.94
2022-08-02T07:17:37.519Z,100940.81
2022-08-02T07:20:07.363Z,100934.22
2022-08-02T07:22:36.750Z,100943.00
2022-08-02T07:25:06.407Z,100939.31
2022-08-02T07:27:35.777Z,100936.25
2022-08-02T07:30:06.122Z,100948.19
2022-08-02T07:32:35.189Z,100946.72
2022-08-02T07:35:06.896Z,100951.66
2022-08-02T07:37:55.113Z,100952.34
2022-08-02T07:40:28.006Z,100957.56
2022-08-02T07:43:03.553Z,100963.06
2022-08-02T07:45:35.808Z,100955.84
2022-08-02T07:48:05.799Z,100953.41
2022-08-02T07:50:34.846Z,100958.31
2022-08-02T07:53:04.162Z,100968.13
2022-08-02T07:55:39.872Z,100960.53
2022-08-02T07:58:11.058Z,100972.13
2022-08-02T08:00:44.800Z,100978.66
2022-08-02T08:03:14.583Z,100967.72
2022-08-02T08:05:43.826Z,100975.91
2022-08-02T08:08:17.308Z,100986.19
2022-08-02T08:10:47.443Z,100977.53
2022-08-02T08:13:16.968Z,100994.13
2022-08-02T08:15:52.220Z,100993.94
2022-08-02T08:18:22.928Z,100987.63
2022-08-02T08:20:52.590Z,100987.06
2022-08-02T08:23:21.648Z,100990.19
2022-08-02T08:25:50.853Z,100987.41
2022-08-02T08:28:19.867Z,100980.66
2022-08-02T08:30:49.569Z,100968.47
2022-08-02T08:33:19.014Z,100966.19
2022-08-02T08:35:48.406Z,100976.63
2022-08-02T08:38:17.402Z,100961.19
2022-08-02T08:40:47.736Z,100971.94
2022-08-02T08:43:17.004Z,100965.84
2022-08-02T08:45:56.049Z,100964.75
2022-08-02T08:48:31.204Z,100961.59
2022-08-02T08:51:10.146Z,100960.72
2022-08-02T08:53:44.456Z,100973.66
2022-08-02T08:56:16.440Z,100980.97
2022-08-02T08:58:48.347Z,100981.59
2022-08-02T09:01:17.997Z,100978.00
2022-08-02T09:03:47.446Z,100975.56
2022-08-02T09:06:16.663Z,100975.13
2022-08-02T09:08:46.468Z,100980.59
2022-08-02T09:11:26.661Z,100974.22
2022-08-02T09:13:58.557Z,100972.16
2022-08-02T09:16:41.970Z,100973.66
2022-08-02T09:19:24.501Z,100970.78
2022-08-02T09:22:03.661Z,100982.25
2022-08-02T09:24:46.655Z,100975.47
2022-08-02T09:27:21.455Z,100977.94
2022-08-02T09:30:13.129Z,100981.97
2022-08-02T09:32:48.651Z,100987.03
2022-08-02T09:36:07.269Z,100987.50
2022-08-02T09:38:27.519Z,100993.22
2022-08-02T09:40:56.883Z,101001.38
2022-08-02T09:44:03.144Z,100997.59
2022-08-02T09:46:39.291Z,100989.78
2022-08-02T09:49:13.775Z,100995.19
2022-08-02T09:51:52.642Z,101002.16
2022-08-02T09:54:26.965Z,101001.47
2022-08-02T09:56:58.771Z,101005.41
2022-08-02T09:59:29.324Z,101004.41
2022-08-02T10:02:02.399Z,101019.78
2022-08-02T10:04:52.624Z,101021.03
2022-08-02T10:07:24.652Z,101024.28
2022-08-02T10:09:54.080Z,101033.06
2022-08-02T10:12:24.028Z,101033.06
2022-08-02T10:14:53.631Z,101032.56
2022-08-02T10:17:23.002Z,101039.28
2022-08-02T10:20:02.570Z,101037.16
2022-08-02T10:22:35.682Z,101039.44
2022-08-02T10:25:06.700Z,101037.94
2022-08-02T10:28:02.941Z,101041.53
2022-08-02T10:30:29.166Z,101041.63
2022-08-02T10:33:01.018Z,101035.72
2022-08-02T10:35:33.964Z,101031.34
2022-08-02T10:38:08.762Z,101034.25
2022-08-02T10:40:44.945Z,101027.59
2022-08-02T10:43:15.043Z,101033.56
2022-08-02T10:45:46.751Z,101030.38
2022-08-02T10:48:19.643Z,101046.22
2022-08-02T10:50:48.904Z,101038.16
2022-08-02T10:53:37.710Z,101031.03
2022-08-02T10:56:09.242Z,101046.34
2022-08-02T10:58:38.698Z,101033.69
2022-08-02T11:01:38.674Z,101028.06
2022-08-02T11:04:10.743Z,101026.34
2022-08-02T11:07:18.117Z,101028.72
2022-08-02T11:09:48.989Z,101022.41
2022-08-02T11:12:22.394Z,101024.78
2022-08-02T11:15:07.751Z,101016.28
2022-08-02T11:18:06.690Z,101025.34
2022-08-02T11:20:35.857Z,101031.41
2022-08-02T11:23:45.432Z,101024.78
2022-08-02T11:26:33.341Z,101026.47
2022-08-02T11:29:06.722Z,101032.69
2022-08-02T11:31:44.542Z,101037.44
2022-08-02T11:34:36.355Z,101040.16
2022-08-02T11:37:03.392Z,101049.88
2022-08-02T11:39:32.659Z,101048.94
2022-08-02T11:42:02.433Z,101051.63
2022-08-02T11:44:41.149Z,101059.28
2022-08-02T11:47:10.496Z,101054.78
2022-08-02T11:49:39.702Z,101057.22
2022-08-02T11:52:12.111Z,101062.81
2022-08-02T11:54:44.234Z,101066.72
2022-08-02T11:57:21.940Z,101057.59
2022-08-02T11:59:53.929Z,101065.16
2022-08-02T12:02:28.957Z,101059.53
2022-08-02T12:05:08.980Z,101064.59
2022-08-02T12:07:45.722Z,101063.56
2022-08-02T12:10:19.433Z,101077.25
2022-08-02T12:12:49.751Z,101070.63
2022-08-02T12:15:45.613Z,101067.81
2022-08-02T12:18:42.582Z,101068.16
2022-08-02T12:21:28.526Z,101068.44
2022-08-02T12:24:00.327Z,101085.34
2022-08-02T12:26:31.430Z,101086.00
2022-08-02T12:29:00.722Z,101079.91
2022-08-02T12:31:57.402Z,101080.69
2022-08-02T12:34:32.594Z,101078.66
2022-08-02T12:37:07.927Z,101083.09
2022-08-02T12:39:39.663Z,101085.25
2022-08-02T12:42:11.282Z,101091.63
2022-08-02T12:44:55.450Z,101089.59
2022-08-02T12:47:24.676Z,101089.28
2022-08-02T12:50:17.246Z,101091.81
2022-08-02T12:52:46.864Z,101088.63
2022-08-02T12:55:21.663Z,101095.66
2022-08-02T12:58:02.250Z,101092.25
2022-08-02T13:00:34.573Z,101093.81
2022-08-02T13:03:09.739Z,101101.50
2022-08-02T13:05:57.485Z,101100.41
2022-08-02T13:08:27.473Z,101105.25
2022-08-02T13:10:56.460Z,101110.16
2022-08-02T13:13:25.543Z,101102.97
2022-08-02T13:15:54.603Z,101106.03
2022-08-02T13:18:30.276Z,101105.75
2022-08-02T13:20:59.481Z,101105.63
2022-08-02T13:23:30.700Z,101105.22
2022-08-02T13:26:18.952Z,101111.22
2022-08-02T13:28:47.975Z,101106.56
2022-08-02T13:31:36.071Z,101110.88
2022-08-02T13:34:10.166Z,101114.47
2022-08-02T13:36:39.283Z,101112.81
2022-08-02T13:39:10.063Z,101130.50
2022-08-02T13:41:39.075Z,101133.13
2022-08-02T13:44:10.728Z,101138.56
2022-08-02T13:46:45.582Z,101139.69
2022-08-02T13:49:19.403Z,101152.47
2022-08-02T13:51:49.682Z,101155.59
2022-08-02T13:54:18.808Z,101160.38
2022-08-02T13:56:47.898Z,101166.81
2022-08-02T13:59:55.438Z,101170.94
2022-08-02T14:02:06.124Z,101171.78
2022-08-02T14:04:35.460Z,101179.81
2022-08-02T14:07:04.713Z,101186.56
2022-08-02T14:09:34.251Z,101183.94
2022-08-02T14:12:05.356Z,101193.53
2022-08-02T14:14:34.440Z,101192.25
2022-08-02T14:17:03.616Z,101192.53
2022-08-02T14:19:32.798Z,101191.03
2022-08-02T14:22:11.699Z,101188.22
2022-08-02T14:24:42.471Z,101185.50
2022-08-02T14:27:11.679Z,101180.03
2022-08-02T14:29:40.715Z,101184.78
2022-08-02T14:32:10.401Z,101189.09
2022-08-02T14:34:39.689Z,101198.22
2022-08-02T14:37:08.711Z,101191.13
2022-08-02T14:39:43.191Z,101191.03
2022-08-02T14:42:27.057Z,101187.81
2022-08-02T14:44:56.304Z,101187.00
2022-08-02T14:47:25.443Z,101179.88
2022-08-02T14:49:54.523Z,101183.84
2022-08-02T14:52:24.087Z,101179.81
2022-08-02T14:54:53.116Z,101178.41
2022-08-02T14:57:22.170Z,101185.78
2022-08-02T14:59:53.391Z,101193.38
2022-08-02T15:02:22.417Z,101188.78
2022-08-02T15:04:51.476Z,101195.69
2022-08-02T15:07:21.108Z,101183.28
2022-08-02T15:09:50.732Z,101180.09
2022-08-02T15:12:20.107Z,101176.88
2022-08-02T15:14:49.115Z,101180.03
2022-08-02T15:17:18.089Z,101182.06
2022-08-02T15:19:57.538Z,101188.16
2022-08-02T15:22:29.491Z,101187.09
2022-08-02T15:25:00.363Z,101190.75
2022-08-02T15:27:29.489Z,101188.44
2022-08-02T15:30:02.125Z,101200.75
2022-08-02T15:32:31.212Z,101204.75
2022-08-02T15:35:00.194Z,101212.25
2022-08-02T15:37:30.843Z,101221.69
2022-08-02T15:40:03.200Z,101227.16
2022-08-02T15:42:32.304Z,101241.13
2022-08-02T15:45:01.333Z,101236.25
2022-08-02T15:47:30.380Z,101238.41
2022-08-02T15:49:59.406Z,101238.03
2022-08-02T15:52:28.847Z,101238.03
2022-08-02T15:55:07.310Z,101250.06
2022-08-02T15:57:36.864Z,101244.28
2022-08-02T16:00:07.336Z,101230.91
2022-08-02T16:02:48.345Z,101232.25
2022-08-02T16:05:18.756Z,101234.56
2022-08-02T16:07:47.957Z,101241.03
2022-08-02T16:10:18.348Z,101242.25
2022-08-02T16:12:47.449Z,101246.66
2022-08-02T16:15:16.455Z,101243.47
2022-08-02T16:17:49.513Z,101239.22
2022-08-02T16:20:24.228Z,101248.13
2022-08-02T16:22:53.322Z,101243.06
2022-08-02T16:25:22.333Z,101243.47
2022-08-02T16:28:06.272Z,101246.72
2022-08-02T16:30:36.690Z,101249.09
2022-08-02T16:33:05.815Z,101240.31
2022-08-02T16:35:35.844Z,101237.97
2022-08-02T16:38:05.124Z,101238.38
2022-08-02T16:40:35.251Z,101237.03
2022-08-02T16:43:09.132Z,101246.78
2022-08-02T16:45:38.509Z,101249.19
2022-08-02T16:48:09.034Z,101247.63
2022-08-02T16:50:38.979Z,101253.22
2022-08-02T16:53:08.658Z,101253.22
2022-08-02T16:55:38.307Z,101255.88
2022-08-02T16:58:20.882Z,101256.41
2022-08-02T17:00:49.974Z,101245.44
2022-08-02T17:03:19.765Z,101258.03
2022-08-02T17:05:56.722Z,101250.00
2022-08-02T17:08:31.456Z,101256.16
2022-08-02T17:11:03.735Z,101260.59
2022-08-02T17:13:34.479Z,101248.00
2022-08-02T17:16:20.985Z,101247.56
2022-08-02T17:18:55.773Z,101249.66
2022-08-02T17:21:24.896Z,101252.03
2022-08-02T17:24:05.500Z,101250.09
2022-08-02T17:26:38.624Z,101237.59
2022-08-02T17:29:14.552Z,101247.56
2022-08-02T17:32:04.985Z,101242.16
2022-08-02T17:34:38.004Z,101247.09
2022-08-02T17:37:08.591Z,101254.00
2022-08-02T17:39:43.975Z,101242.00
2022-08-02T17:42:23.109Z,101251.63
2022-08-02T17:45:00.914Z,101242.53
2022-08-02T17:47:42.505Z,101244.28
2022-08-02T17:50:12.472Z,101246.47
2022-08-02T17:52:49.923Z,101249.16
2022-08-02T17:55:21.917Z,101251.47
2022-08-02T17:57:57.640Z,101250.28
2022-08-02T18:00:38.758Z,101247.91
2022-08-02T18:03:10.255Z,101247.66
2022-08-02T18:05:53.526Z,101247.38
2022-08-02T18:08:24.827Z,101249.59
2022-08-02T18:10:56.507Z,101253.56
2022-08-02T18:13:32.741Z,101251.91
2022-08-02T18:16:03.071Z,101252.91
2022-08-02T18:18:33.016Z,101249.56
2022-08-02T18:21:15.901Z,101251.13
2022-08-02T18:23:58.451Z,101243.31
2022-08-02T18:26:29.511Z,101251.59
2022-08-02T18:29:00.162Z,101253.84
2022-08-02T18:31:29.237Z,101253.84
2022-08-02T18:34:08.971Z,101244.91
2022-08-02T18:36:47.434Z,101241.84
2022-08-02T18:39:27.138Z,101250.47
2022-08-02T18:42:02.276Z,101252.50
2022-08-02T18:44:31.981Z,101246.63
2022-08-02T18:47:01.122Z,101254.84
2022-08-02T18:49:46.178Z,101250.03
2022-08-02T18:52:17.148Z,101259.50
2022-08-02T18:55:00.700Z,101257.41
2022-08-02T18:58:01.888Z,101259.44
2022-08-02T19:00:20.693Z,101260.63
2022-08-02T19:02:55.385Z,101252.56
2022-08-02T19:05:53.109Z,101251.16
2022-08-02T19:08:14.548Z,101246.31
2022-08-02T19:10:49.056Z,101247.09
2022-08-02T19:13:39.347Z,101243.31
2022-08-02T19:16:13.022Z,101239.84
2022-08-02T19:18:42.065Z,101239.81
2022-08-02T19:21:11.073Z,101241.56
2022-08-02T19:23:54.627Z,101235.91
2022-08-02T19:26:25.874Z,101236.75
2022-08-02T19:28:55.145Z,101243.81
2022-08-02T19:31:24.281Z,101242.66
2022-08-02T19:34:07.222Z,101244.91
2022-08-02T19:36:37.364Z,101241.03
2022-08-02T19:39:09.920Z,101236.91
2022-08-02T19:41:46.986Z,101235.41
2022-08-02T19:47:05.666Z,101237.22
2022-08-02T19:49:41.215Z,101227.19
2022-08-02T19:52:20.417Z,101218.44
2022-08-02T19:54:55.621Z,101217.63
2022-08-02T19:57:25.820Z,101221.34
2022-08-02T19:59:57.669Z,101218.66
2022-08-02T20:02:27.333Z,101212.66
2022-08-02T20:04:58.124Z,101219.09
2022-08-02T20:07:54.877Z,101214.34
2022-08-02T20:10:24.789Z,101202.84
2022-08-02T20:12:55.126Z,101200.91
2022-08-02T20:15:51.793Z,101201.56
2022-08-02T20:18:13.725Z,101201.03
2022-08-02T20:20:55.771Z,101195.72
2022-08-02T20:23:33.991Z,101193.97
2022-08-02T20:26:03.597Z,101187.34
2022-08-02T20:28:32.908Z,101185.47
2022-08-02T20:31:06.911Z,101189.16
2022-08-02T20:33:37.104Z,101187.63
2022-08-02T20:36:27.302Z,101185.44
2022-08-02T20:38:57.128Z,101188.66
2022-08-02T20:41:36.728Z,101183.94
2022-08-02T20:44:15.495Z,101191.50
2022-08-02T20:46:59.408Z,101185.22
2022-08-02T20:49:40.903Z,101190.50
2022-08-02T20:52:23.902Z,101190.78
2022-08-02T20:54:54.161Z,101179.03
2022-08-02T20:57:49.067Z,101174.91
2022-08-02T21:00:13.082Z,101178.47
2022-08-02T21:02:42.713Z,101173.16
2022-08-02T21:05:17.356Z,101172.88
2022-08-02T21:07:53.310Z,101170.69
2022-08-02T21:10:23.997Z,101168.31
2022-08-02T21:12:53.646Z,101162.88
2022-08-02T21:15:25.921Z,101169.13
2022-08-02T21:17:57.769Z,101164.94
2022-08-02T21:20:30.099Z,101162.88
2022-08-02T21:22:59.357Z,101159.00
2022-08-02T21:28:17.895Z,101160.81
2022-08-02T21:30:47.557Z,101160.25
2022-08-02T21:33:23.284Z,101154.53
2022-08-02T21:35:53.377Z,101151.19
2022-08-02T21:38:35.893Z,101146.31
2022-08-02T21:41:12.089Z,101147.81
2022-08-02T21:43:44.004Z,101149.34
2022-08-02T21:46:14.767Z,101145.25
2022-08-02T21:48:44.478Z,101139.31
2022-08-02T21:51:15.969Z,101131.63
2022-08-02T21:54:18.026Z,101140.34
2022-08-02T21:56:34.296Z,101131.97
2022-08-02T21:59:16.232Z,101141.22
2022-08-02T22:01:52.465Z,101128.81
2022-08-02T22:04:23.305Z,101130.13
2022-08-02T22:06:52.381Z,101126.22
2022-08-02T22:09:44.521Z,101123.19
2022-08-02T22:12:16.647Z,101120.75
2022-08-02T22:14:55.251Z,101123.69
2022-08-02T22:17:52.574Z,101124.56
2022-08-02T22:20:20.762Z,101127.13
2022-08-02T22:22:52.518Z,101123.22
2022-08-02T22:25:31.551Z,101116.38
2022-08-02T22:28:38.219Z,101117.66
2022-08-02T22:31:05.424Z,101111.69
2022-08-02T22:34:01.194Z,101100.78
2022-08-02T22:36:34.568Z,101104.09
2022-08-02T22:39:18.766Z,101099.28
2022-08-02T22:42:05.265Z,101095.63
2022-08-02T22:44:37.117Z,101096.13
2022-08-02T22:47:14.055Z,101088.81
2022-08-02T22:49:53.257Z,101089.78
2022-08-02T22:52:25.106Z,101085.97
2022-08-02T22:54:55.179Z,101101.81
2022-08-02T22:57:30.389Z,101084.19
2022-08-02T22:59:02.658Z,101166.41
2022-08-02T22:59:05.371Z,101231.72
2022-08-02T23:00:01.162Z,101082.47
2022-08-02T23:02:30.347Z,101074.09
2022-08-02T23:05:00.000Z,101080.72
2022-08-02T23:07:29.357Z,101073.94
2022-08-02T23:10:08.873Z,101073.88
2022-08-02T23:12:37.913Z,101069.56
2022-08-02T23:15:07.329Z,101065.91
2022-08-02T23:17:55.188Z,101067.22
2022-08-02T23:20:24.453Z,101064.66
2022-08-02T23:22:55.696Z,101065.06
2022-08-02T23:25:24.975Z,101057.38
2022-08-02T23:27:54.081Z,101055.31
2022-08-02T23:30:23.215Z,101055.00
2022-08-02T23:32:52.229Z,101059.88
2022-08-02T23:35:21.278Z,101056.44
2022-08-02T23:37:59.379Z,101062.31
2022-08-02T23:40:40.434Z,101057.38
2022-08-02T23:43:13.833Z,101059.91
2022-08-02T23:45:46.161Z,101052.09
2022-08-02T23:48:15.616Z,101052.25
2022-08-02T23:50:44.889Z,101052.31
2022-08-02T23:53:13.965Z,101043.94
2022-08-02T23:55:42.977Z,101041.09
2022-08-02T23:58:13.426Z,101038.25
